createdAt,value
2023-06-14T00:01:35.760Z,19.29
2023-06-14T00:04:02.873Z,19.25
2023-06-14T00:06:30.114Z,19.13
2023-06-14T00:08:56.923Z,19.01
2023-06-14T00:11:23.687Z,18.90
2023-06-14T00:13:50.393Z,18.78
2023-06-14T00:16:17.123Z,18.77
2023-06-14T00:18:43.807Z,18.81
2023-06-14T00:21:10.515Z,18.88
2023-06-14T00:23:37.384Z,18.70
2023-06-14T00:26:04.264Z,18.66
2023-06-14T00:28:30.952Z,18.68
2023-06-14T00:30:57.837Z,18.67
2023-06-14T00:33:24.525Z,18.62
2023-06-14T00:35:51.278Z,18.57
2023-06-14T00:38:18.004Z,18.67
2023-06-14T00:40:44.683Z,18.70
2023-06-14T00:43:11.349Z,18.70
2023-06-14T00:45:40.559Z,18.57
2023-06-14T00:48:09.324Z,18.63
2023-06-14T00:50:36.881Z,18.49
2023-06-14T00:53:03.748Z,18.44
2023-06-14T00:55:31.156Z,18.66
2023-06-14T00:57:58.203Z,18.73
2023-06-14T01:00:24.966Z,18.49
2023-06-14T01:02:51.892Z,18.48
2023-06-14T01:05:20.060Z,18.38
2023-06-14T01:08:29.232Z,18.39
2023-06-14T01:11:08.263Z,18.34
2023-06-14T01:13:41.733Z,18.06
2023-06-14T01:16:09.523Z,18.16
2023-06-14T01:18:37.270Z,18.16
2023-06-14T01:21:04.252Z,18.09
2023-06-14T01:23:31.027Z,18.06
2023-06-14T01:25:57.765Z,18.06
2023-06-14T01:28:25.929Z,18.16
2023-06-14T01:30:55.797Z,18.05
2023-06-14T01:33:24.969Z,18.05
2023-06-14T01:35:56.818Z,18.14
2023-06-14T01:38:26.719Z,18.27
2023-06-14T01:40:58.101Z,18.18
2023-06-14T01:43:26.703Z,18.16
2023-06-14T01:45:55.611Z,18.26
2023-06-14T01:48:22.972Z,18.14
2023-06-14T01:50:50.994Z,18.13
2023-06-14T01:53:19.133Z,18.15
2023-06-14T01:55:48.363Z,18.27
2023-06-14T01:58:16.857Z,18.10
2023-06-14T02:00:43.559Z,18.08
2023-06-14T02:03:10.436Z,17.99
2023-06-14T02:05:37.170Z,17.96
2023-06-14T02:08:04.027Z,17.95
2023-06-14T02:10:30.804Z,17.89
2023-06-14T02:12:57.574Z,17.75
2023-06-14T02:15:24.287Z,17.57
2023-06-14T02:17:51.084Z,17.77
2023-06-14T02:20:18.487Z,17.92
2023-06-14T02:22:46.160Z,17.85
2023-06-14T02:25:12.855Z,17.99
2023-06-14T02:27:39.918Z,18.11
2023-06-14T02:30:07.176Z,17.93
2023-06-14T02:32:34.180Z,17.94
2023-06-14T02:35:00.951Z,17.88
2023-06-14T02:37:27.653Z,17.75
2023-06-14T02:39:54.412Z,17.82
2023-06-14T02:42:21.085Z,17.70
2023-06-14T02:44:47.785Z,17.59
2023-06-14T02:47:14.492Z,17.77
2023-06-14T02:49:41.199Z,17.83
2023-06-14T02:52:07.887Z,17.63
2023-06-14T02:54:34.565Z,17.45
2023-06-14T02:57:01.404Z,17.44
2023-06-14T02:59:28.273Z,17.47
2023-06-14T03:01:54.998Z,17.53
2023-06-14T03:04:21.685Z,17.38
2023-06-14T03:06:48.404Z,17.36
2023-06-14T03:09:15.162Z,17.52
2023-06-14T03:11:41.862Z,17.12
2023-06-14T03:14:08.581Z,17.23
2023-06-14T03:16:35.510Z,17.30
2023-06-14T03:19:04.562Z,17.13
2023-06-14T03:21:31.353Z,17.20
2023-06-14T03:23:58.105Z,17.10
2023-06-14T03:26:24.817Z,17.05
2023-06-14T03:28:51.556Z,17.03
2023-06-14T03:31:18.426Z,16.92
2023-06-14T03:33:45.142Z,16.83
2023-06-14T03:36:11.854Z,16.85
2023-06-14T03:38:38.835Z,16.89
2023-06-14T03:41:05.544Z,17.13
2023-06-14T03:43:32.234Z,16.94
2023-06-14T03:45:58.977Z,16.92
2023-06-14T03:48:25.835Z,16.92
2023-06-14T03:50:52.673Z,16.94
2023-06-14T03:53:19.379Z,16.84
2023-06-14T03:58:16.632Z,16.99
2023-06-14T04:00:43.330Z,17.24
2023-06-14T04:03:10.188Z,17.22
2023-06-14T04:05:37.031Z,17.17
2023-06-14T04:08:03.905Z,17.07
2023-06-14T04:10:30.592Z,17.18
2023-06-14T04:12:57.306Z,17.22
2023-06-14T04:15:24.343Z,17.24
2023-06-14T04:17:51.420Z,17.33
2023-06-14T04:20:18.232Z,17.46
2023-06-14T04:22:45.014Z,17.58
2023-06-14T04:25:11.734Z,17.65
2023-06-14T04:27:38.718Z,17.45
2023-06-14T04:30:06.095Z,17.30
2023-06-14T04:32:32.861Z,17.49
2023-06-14T04:34:59.663Z,17.28
2023-06-14T04:37:26.537Z,17.52
2023-06-14T04:39:53.295Z,17.56
2023-06-14T04:42:20.017Z,17.39
2023-06-14T04:44:46.721Z,17.29
2023-06-14T04:47:14.552Z,17.21
2023-06-14T04:49:41.332Z,17.29
2023-06-14T04:52:08.247Z,17.11
2023-06-14T04:54:35.079Z,17.23
2023-06-14T04:57:01.830Z,17.42
2023-06-14T04:59:31.313Z,17.54
2023-06-14T05:01:58.151Z,17.71
2023-06-14T05:04:25.995Z,17.73
2023-06-14T05:06:52.669Z,17.74
2023-06-14T05:09:19.426Z,17.61
2023-06-14T05:11:46.149Z,17.68
2023-06-14T05:14:13.311Z,17.72
2023-06-14T05:16:41.149Z,17.86
2023-06-14T05:19:08.356Z,18.01
2023-06-14T05:21:40.522Z,17.94
2023-06-14T05:24:09.182Z,17.99
2023-06-14T05:26:36.027Z,17.91
2023-06-14T05:29:05.041Z,18.04
2023-06-14T05:31:31.848Z,17.97
2023-06-14T05:33:58.621Z,18.00
2023-06-14T05:36:25.449Z,18.03
2023-06-14T05:38:52.489Z,18.03
2023-06-14T05:41:19.163Z,17.99
2023-06-14T05:43:45.851Z,17.95
2023-06-14T05:46:12.540Z,17.90
2023-06-14T05:48:39.234Z,18.00
2023-06-14T05:51:05.923Z,17.98
2023-06-14T05:53:32.650Z,18.10
2023-06-14T05:55:59.368Z,18.13
2023-06-14T05:58:26.186Z,18.23
2023-06-14T06:00:53.133Z,18.63
2023-06-14T06:03:20.144Z,18.92
2023-06-14T06:05:47.026Z,19.03
2023-06-14T06:08:13.818Z,19.04
2023-06-14T06:10:40.564Z,19.08
2023-06-14T06:13:07.805Z,19.28
2023-06-14T06:15:36.582Z,19.28
2023-06-14T06:18:03.455Z,19.84
2023-06-14T06:20:31.114Z,20.67
2023-06-14T06:22:58.674Z,21.03
2023-06-14T06:25:26.150Z,21.18
2023-06-14T06:27:56.385Z,21.21
2023-06-14T06:30:23.494Z,21.57
2023-06-14T06:32:50.246Z,21.76
2023-06-14T06:35:17.218Z,22.27
2023-06-14T06:37:44.623Z,22.82
2023-06-14T06:40:11.566Z,23.53
2023-06-14T06:42:38.336Z,24.90
2023-06-14T06:45:06.845Z,25.54
2023-06-14T06:47:33.572Z,26.81
2023-06-14T06:50:00.283Z,28.05
2023-06-14T06:52:26.990Z,28.45
2023-06-14T06:54:53.739Z,28.91
2023-06-14T06:57:20.504Z,29.06
2023-06-14T06:59:47.211Z,29.50
2023-06-14T07:02:14.097Z,29.67
2023-06-14T07:04:40.826Z,29.44
2023-06-14T07:07:07.653Z,30.09
2023-06-14T07:09:34.350Z,30.75
2023-06-14T07:12:01.057Z,30.68
2023-06-14T07:14:27.970Z,30.32
2023-06-14T07:16:55.068Z,30.62
2023-06-14T07:19:22.146Z,30.14
2023-06-14T07:21:49.519Z,30.09
2023-06-14T07:24:16.606Z,29.21
2023-06-14T07:26:43.613Z,28.41
2023-06-14T07:29:10.514Z,29.03
2023-06-14T07:31:37.232Z,29.26
2023-06-14T07:34:04.169Z,29.73
2023-06-14T07:36:33.932Z,30.14
2023-06-14T07:39:00.729Z,30.25
2023-06-14T07:41:27.453Z,28.73
2023-06-14T07:43:54.162Z,28.29
2023-06-14T07:46:20.999Z,28.62
2023-06-14T07:48:47.816Z,27.91
2023-06-14T07:51:17.191Z,27.89
2023-06-14T07:53:43.893Z,28.68
2023-06-14T07:56:10.603Z,28.67
2023-06-14T07:58:37.327Z,29.35
2023-06-14T08:01:04.042Z,29.47
2023-06-14T08:03:30.963Z,30.18
2023-06-14T08:05:57.931Z,30.43
2023-06-14T08:08:24.783Z,30.54
2023-06-14T08:10:51.541Z,30.17
2023-06-14T08:13:18.445Z,30.32
2023-06-14T08:15:45.299Z,30.64
2023-06-14T08:18:12.143Z,30.52
2023-06-14T08:20:38.868Z,30.92
2023-06-14T08:23:05.669Z,31.23
2023-06-14T08:25:32.462Z,31.88
2023-06-14T08:28:00.312Z,31.46
2023-06-14T08:30:27.232Z,31.46
2023-06-14T08:33:06.040Z,31.69
2023-06-14T08:35:40.626Z,31.02
2023-06-14T08:38:07.364Z,30.46
2023-06-14T08:40:38.551Z,30.27
2023-06-14T08:43:05.401Z,30.03
2023-06-14T08:45:32.773Z,30.35
2023-06-14T08:48:01.439Z,29.20
2023-06-14T08:50:29.564Z,28.58
2023-06-14T08:53:02.123Z,28.58
2023-06-14T08:55:31.381Z,28.09
2023-06-14T08:58:00.044Z,28.78
2023-06-14T09:00:28.890Z,28.86
2023-06-14T09:02:55.960Z,29.04
2023-06-14T09:05:24.727Z,28.55
2023-06-14T09:07:51.759Z,28.88
2023-06-14T09:10:18.604Z,29.75
2023-06-14T09:12:45.389Z,30.71
2023-06-14T09:15:12.226Z,30.17
2023-06-14T09:17:40.060Z,29.04
2023-06-14T09:20:08.814Z,27.49
2023-06-14T09:22:35.866Z,27.25
2023-06-14T09:25:03.438Z,27.56
2023-06-14T09:27:30.743Z,27.64
2023-06-14T09:29:57.809Z,27.63
2023-06-14T09:32:26.379Z,28.28
2023-06-14T09:34:53.170Z,26.95
2023-06-14T09:37:30.700Z,27.57
2023-06-14T09:39:58.777Z,27.61
2023-06-14T09:42:27.103Z,27.07
2023-06-14T09:45:59.373Z,26.88
2023-06-14T09:48:26.476Z,26.50
2023-06-14T09:50:59.194Z,25.94
2023-06-14T09:53:28.936Z,25.36
2023-06-14T09:55:58.399Z,24.96
2023-06-14T09:58:28.794Z,24.65
2023-06-14T10:00:55.772Z,24.70
2023-06-14T10:03:31.972Z,24.94
2023-06-14T10:06:09.151Z,25.38
2023-06-14T10:08:38.906Z,25.69
2023-06-14T10:11:05.626Z,25.70
2023-06-14T10:13:34.192Z,25.93
2023-06-14T10:16:19.839Z,25.72
2023-06-14T10:19:14.774Z,25.85
2023-06-14T10:21:50.148Z,25.08
2023-06-14T10:24:24.908Z,25.00
2023-06-14T10:26:56.754Z,25.48
2023-06-14T10:29:25.243Z,25.27
2023-06-14T10:31:57.854Z,25.45
2023-06-14T10:34:28.598Z,25.39
2023-06-14T10:37:12.842Z,25.01
2023-06-14T10:39:42.503Z,24.89
2023-06-14T10:42:09.589Z,24.96
2023-06-14T10:44:55.426Z,25.11
2023-06-14T10:47:29.589Z,25.46
2023-06-14T10:50:04.193Z,25.50
2023-06-14T10:52:35.220Z,25.71
2023-06-14T10:55:12.622Z,25.82
2023-06-14T10:57:51.638Z,25.97
2023-06-14T11:00:36.545Z,25.83
2023-06-14T11:03:31.674Z,25.85
2023-06-14T11:06:01.839Z,26.04
2023-06-14T11:09:14.130Z,25.69
2023-06-14T11:11:43.735Z,25.47
2023-06-14T11:14:11.421Z,25.66
2023-06-14T11:16:38.198Z,25.64
2023-06-14T11:19:05.160Z,25.78
2023-06-14T11:21:34.411Z,25.66
2023-06-14T11:24:01.421Z,25.98
2023-06-14T11:26:32.774Z,25.95
2023-06-14T11:29:01.009Z,25.76
2023-06-14T11:31:29.479Z,25.73
2023-06-14T11:33:58.017Z,25.83
2023-06-14T11:36:28.511Z,25.83
2023-06-14T11:39:03.544Z,25.77
2023-06-14T11:41:42.344Z,25.07
2023-06-14T11:44:10.274Z,24.90
2023-06-14T11:46:37.176Z,24.80
2023-06-14T11:49:05.266Z,25.22
2023-06-14T11:51:34.762Z,25.35
2023-06-14T11:54:06.580Z,25.68
2023-06-14T11:56:33.917Z,25.75
2023-06-14T11:59:01.249Z,25.90
2023-06-14T12:01:28.308Z,25.88
2023-06-14T12:03:56.063Z,26.14
2023-06-14T12:06:30.918Z,26.12
2023-06-14T12:08:58.071Z,26.22
2023-06-14T12:11:29.115Z,26.24
2023-06-14T12:13:57.939Z,26.49
2023-06-14T12:16:32.293Z,25.89
2023-06-14T12:19:01.948Z,26.15
2023-06-14T12:21:28.673Z,26.36
2023-06-14T12:23:55.870Z,26.52
2023-06-14T12:26:22.640Z,26.48
2023-06-14T12:28:49.483Z,26.33
2023-06-14T12:31:17.124Z,26.33
2023-06-14T12:33:44.608Z,26.29
2023-06-14T12:36:12.071Z,25.95
2023-06-14T12:38:38.858Z,26.21
2023-06-14T12:41:05.815Z,26.01
2023-06-14T12:43:32.678Z,26.21
2023-06-14T12:45:59.500Z,26.13
2023-06-14T12:48:26.703Z,26.16
2023-06-14T12:50:53.630Z,26.17
2023-06-14T12:53:20.349Z,26.20
2023-06-14T12:55:47.122Z,26.27
2023-06-14T12:58:13.820Z,26.24
2023-06-14T13:00:41.138Z,26.37
2023-06-14T13:03:07.965Z,26.52
2023-06-14T13:05:34.788Z,26.55
2023-06-14T13:08:01.875Z,26.53
2023-06-14T13:10:30.546Z,26.60
2023-06-14T13:12:57.287Z,26.62
2023-06-14T13:15:26.384Z,26.63
2023-06-14T13:17:53.263Z,26.79
2023-06-14T13:20:21.062Z,26.81
2023-06-14T13:22:48.170Z,26.76
2023-06-14T13:25:14.885Z,26.86
2023-06-14T13:27:41.591Z,26.81
2023-06-14T13:30:08.689Z,26.79
2023-06-14T13:32:35.453Z,26.52
2023-06-14T13:35:02.246Z,26.52
2023-06-14T13:37:29.132Z,25.96
2023-06-14T13:39:55.908Z,26.10
2023-06-14T13:42:22.599Z,25.84
2023-06-14T13:44:49.338Z,25.66
2023-06-14T13:47:16.004Z,25.51
2023-06-14T13:49:42.716Z,25.54
2023-06-14T13:52:09.497Z,25.82
2023-06-14T13:54:36.217Z,25.94
2023-06-14T13:57:02.925Z,26.10
2023-06-14T13:59:29.613Z,25.82
2023-06-14T14:01:56.296Z,25.86
2023-06-14T14:04:23.102Z,25.72
2023-06-14T14:06:49.835Z,26.32
2023-06-14T14:09:16.561Z,26.46
2023-06-14T14:11:43.309Z,26.39
2023-06-14T14:14:09.997Z,26.36
2023-06-14T14:16:36.877Z,26.11
2023-06-14T14:19:03.725Z,26.29
2023-06-14T14:21:31.234Z,26.10
2023-06-14T14:23:57.976Z,26.29
2023-06-14T14:26:24.870Z,26.52
2023-06-14T14:28:52.338Z,26.33
2023-06-14T14:31:19.876Z,26.30
2023-06-14T14:33:46.690Z,26.17
2023-06-14T14:36:13.412Z,25.96
2023-06-14T14:38:40.083Z,26.38
2023-06-14T14:41:06.798Z,26.26
2023-06-14T14:43:33.511Z,26.49
2023-06-14T14:46:00.227Z,26.69
2023-06-14T14:48:26.924Z,26.27
2023-06-14T14:50:53.665Z,26.32
2023-06-14T14:53:20.321Z,26.24
2023-06-14T14:55:47.049Z,26.41
2023-06-14T14:58:14.748Z,26.63
2023-06-14T15:00:41.411Z,26.86
2023-06-14T15:03:08.179Z,26.74
2023-06-14T15:05:34.941Z,26.86
2023-06-14T15:08:01.638Z,27.00
2023-06-14T15:10:28.316Z,27.12
2023-06-14T15:12:55.025Z,27.16
2023-06-14T15:15:23.351Z,26.35
2023-06-14T15:17:50.089Z,26.72
2023-06-14T15:20:17.050Z,26.60
2023-06-14T15:22:43.946Z,26.85
2023-06-14T15:25:10.769Z,26.59
2023-06-14T15:27:37.516Z,26.27
2023-06-14T15:30:04.547Z,26.44
2023-06-14T15:32:31.268Z,26.30
2023-06-14T15:34:57.950Z,26.69
2023-06-14T15:37:24.662Z,26.82
2023-06-14T15:39:51.356Z,26.71
2023-06-14T15:42:18.058Z,26.42
2023-06-14T15:44:44.752Z,26.74
2023-06-14T15:47:11.434Z,26.63
2023-06-14T15:49:38.108Z,26.48
2023-06-14T15:52:05.183Z,26.06
2023-06-14T15:54:34.070Z,26.00
2023-06-14T15:57:00.743Z,25.79
2023-06-14T15:59:27.474Z,25.94
2023-06-14T16:01:54.212Z,26.18
2023-06-14T16:04:21.294Z,26.07
2023-06-14T16:06:47.988Z,26.19
2023-06-14T16:09:14.648Z,25.91
2023-06-14T16:11:42.078Z,25.80
2023-06-14T16:14:08.887Z,25.72
2023-06-14T16:16:35.720Z,26.11
2023-06-14T16:19:02.444Z,26.24
2023-06-14T16:21:29.152Z,26.54
2023-06-14T16:23:55.897Z,26.55
2023-06-14T16:26:22.603Z,26.66
2023-06-14T16:28:49.270Z,26.71
2023-06-14T16:31:15.959Z,26.62
2023-06-14T16:33:42.730Z,26.53
2023-06-14T16:36:13.233Z,26.61
2023-06-14T16:38:40.205Z,26.42
2023-06-14T16:41:06.873Z,26.25
2023-06-14T16:43:33.561Z,26.44
2023-06-14T16:46:02.816Z,26.58
2023-06-14T16:48:29.601Z,26.79
2023-06-14T16:50:56.459Z,27.07
2023-06-14T16:53:23.142Z,27.31
2023-06-14T16:55:49.896Z,27.02
2023-06-14T16:58:16.775Z,26.05
2023-06-14T17:00:43.479Z,26.30
2023-06-14T17:03:11.378Z,26.39
2023-06-14T17:05:54.230Z,25.86
2023-06-14T17:08:20.973Z,25.76
2023-06-14T17:10:47.675Z,25.76
2023-06-14T17:13:17.459Z,25.45
2023-06-14T17:15:44.458Z,25.95
2023-06-14T17:18:11.312Z,25.95
2023-06-14T17:20:38.059Z,25.99
2023-06-14T17:23:04.922Z,26.31
2023-06-14T17:25:31.822Z,26.11
2023-06-14T17:27:58.574Z,25.94
2023-06-14T17:30:25.471Z,25.80
2023-06-14T17:32:54.506Z,25.50
2023-06-14T17:35:21.329Z,25.70
2023-06-14T17:37:50.304Z,25.60
2023-06-14T17:40:17.604Z,25.05
2023-06-14T17:42:44.661Z,25.13
2023-06-14T17:45:11.669Z,25.01
2023-06-14T17:47:40.886Z,25.46
2023-06-14T17:50:08.564Z,25.33
2023-06-14T17:52:35.392Z,25.28
2023-06-14T17:55:03.627Z,25.52
2023-06-14T17:57:30.334Z,25.58
2023-06-14T17:59:57.354Z,25.45
2023-06-14T18:02:24.112Z,25.42
2023-06-14T18:04:50.880Z,24.95
2023-06-14T18:07:17.607Z,24.99
2023-06-14T18:09:44.352Z,24.89
2023-06-14T18:12:11.073Z,24.91
2023-06-14T18:14:38.043Z,24.77
2023-06-14T18:17:05.069Z,24.56
2023-06-14T18:19:31.830Z,24.56
2023-06-14T18:21:59.978Z,24.63
2023-06-14T18:24:26.706Z,24.53
2023-06-14T18:26:53.481Z,24.58
2023-06-14T18:29:20.196Z,24.50
2023-06-14T18:31:47.076Z,24.64
2023-06-14T18:34:13.884Z,24.40
2023-06-14T18:36:40.666Z,24.54
2023-06-14T18:39:07.469Z,24.45
2023-06-14T18:41:35.501Z,24.66
2023-06-14T18:44:02.307Z,24.37
2023-06-14T18:46:29.056Z,24.59
2023-06-14T18:48:55.793Z,24.57
2023-06-14T18:51:22.504Z,24.63
2023-06-14T18:53:49.265Z,24.45
2023-06-14T18:56:15.992Z,24.73
2023-06-14T18:58:42.723Z,24.25
2023-06-14T19:01:09.452Z,24.30
2023-06-14T19:03:36.397Z,24.08
2023-06-14T19:06:03.211Z,24.00
2023-06-14T19:08:29.951Z,23.74
2023-06-14T19:10:56.654Z,23.49
2023-06-14T19:13:24.057Z,23.21
2023-06-14T19:15:50.757Z,23.24
2023-06-14T19:18:17.558Z,23.17
2023-06-14T19:20:44.329Z,22.93
2023-06-14T19:23:11.162Z,23.01
2023-06-14T19:25:37.836Z,22.85
2023-06-14T19:28:04.707Z,22.74
2023-06-14T19:30:31.451Z,22.71
2023-06-14T19:32:58.255Z,22.51
2023-06-14T19:35:25.030Z,22.48
2023-06-14T19:37:51.960Z,22.29
2023-06-14T19:40:20.217Z,22.39
2023-06-14T19:42:47.344Z,22.27
2023-06-14T19:45:14.221Z,22.21
2023-06-14T19:47:43.800Z,22.19
2023-06-14T19:50:10.795Z,22.18
2023-06-14T19:52:37.503Z,22.23
2023-06-14T19:55:04.600Z,22.20
2023-06-14T19:57:31.320Z,22.21
2023-06-14T19:59:57.981Z,22.28
2023-06-14T20:02:24.697Z,22.19
2023-06-14T20:04:51.478Z,22.18
2023-06-14T20:07:18.149Z,22.06
2023-06-14T20:09:44.855Z,21.96
2023-06-14T20:12:11.641Z,21.99
2023-06-14T20:14:39.049Z,21.90
2023-06-14T20:17:06.057Z,22.07
2023-06-14T20:19:32.740Z,21.92
2023-06-14T20:21:59.511Z,21.76
2023-06-14T20:24:29.335Z,21.81
2023-06-14T20:26:56.203Z,21.70
2023-06-14T20:29:22.883Z,21.78
2023-06-14T20:31:49.709Z,21.85
2023-06-14T20:34:16.449Z,21.67
2023-06-14T20:36:43.165Z,21.58
2023-06-14T20:39:09.942Z,21.47
2023-06-14T20:41:37.329Z,21.63
2023-06-14T20:44:04.084Z,21.70
2023-06-14T20:46:30.781Z,21.62
2023-06-14T20:48:57.532Z,21.64
2023-06-14T20:51:24.498Z,21.46
2023-06-14T20:53:51.348Z,21.38
2023-06-14T20:56:18.120Z,21.45
2023-06-14T20:58:44.833Z,21.36
2023-06-14T21:01:11.568Z,21.28
2023-06-14T21:03:38.373Z,21.28
2023-06-14T21:06:05.095Z,21.18
2023-06-14T21:08:31.812Z,21.09
2023-06-14T21:10:58.498Z,21.01
2023-06-14T21:13:25.198Z,20.99
2023-06-14T21:15:51.915Z,21.01
2023-06-14T21:18:18.848Z,20.93
2023-06-14T21:20:45.729Z,20.91
2023-06-14T21:23:12.420Z,20.90
2023-06-14T21:25:39.278Z,20.92
2023-06-14T21:28:06.089Z,20.70
2023-06-14T21:30:34.137Z,20.75
2023-06-14T21:33:01.337Z,20.69
2023-06-14T21:35:28.072Z,20.83
2023-06-14T21:37:54.842Z,20.70
2023-06-14T21:40:21.548Z,20.57
2023-06-14T21:42:48.316Z,20.60
2023-06-14T21:45:15.025Z,20.52
2023-06-14T21:47:41.736Z,20.44
2023-06-14T21:50:09.050Z,20.46
2023-06-14T21:52:35.756Z,20.54
2023-06-14T21:55:02.453Z,20.48
2023-06-14T21:57:29.251Z,20.43
2023-06-14T21:59:56.041Z,20.32
2023-06-14T22:02:23.167Z,20.38
2023-06-14T22:04:50.081Z,20.32
2023-06-14T22:07:17.960Z,20.28
2023-06-14T22:09:44.687Z,20.24
2023-06-14T22:12:11.439Z,20.23
2023-06-14T22:14:38.113Z,20.22
2023-06-14T22:17:05.090Z,20.35
2023-06-14T22:19:31.809Z,20.30
2023-06-14T22:21:58.508Z,20.40
2023-06-14T22:24:25.317Z,20.41
2023-06-14T22:26:51.982Z,20.38
2023-06-14T22:29:18.727Z,20.38
2023-06-14T22:31:45.457Z,20.49
2023-06-14T22:34:12.303Z,20.48
2023-06-14T22:36:39.005Z,20.35
2023-06-14T22:39:06.100Z,20.31
2023-06-14T22:41:32.943Z,20.27
2023-06-14T22:44:00.005Z,20.22
2023-06-14T22:46:26.773Z,20.11
2023-06-14T22:48:53.508Z,20.37
2023-06-14T22:51:22.202Z,20.21
2023-06-14T22:53:49.418Z,20.41
2023-06-14T22:56:18.363Z,20.25
2023-06-14T22:58:45.905Z,20.25
2023-06-14T23:01:16.088Z,20.19
2023-06-14T23:03:43.798Z,20.25
2023-06-14T23:06:12.115Z,20.21
2023-06-14T23:08:38.794Z,20.35
2023-06-14T23:11:05.521Z,20.31
2023-06-14T23:13:34.521Z,20.40
2023-06-14T23:16:01.207Z,20.22
2023-06-14T23:18:27.921Z,20.37
2023-06-14T23:20:54.597Z,20.37
2023-06-14T23:23:21.322Z,20.35
2023-06-14T23:25:48.744Z,20.47
2023-06-14T23:28:15.437Z,20.24
2023-06-14T23:30:42.132Z,20.35
2023-06-14T23:33:08.977Z,20.37
2023-06-14T23:35:35.683Z,20.36
2023-06-14T23:38:02.376Z,20.42
2023-06-14T23:40:29.039Z,20.47
2023-06-14T23:42:56.458Z,20.46
2023-06-14T23:45:24.405Z,20.82
2023-06-14T23:47:51.390Z,21.04
2023-06-14T23:50:18.223Z,21.22
2023-06-14T23:52:44.934Z,21.35
2023-06-14T23:55:11.930Z,21.21
2023-06-14T23:57:38.579Z,21.42
